Nearby METAR Reports

 

YBUD - Bundaberg, Australia
Distance from station: SSW 6km
Updated: 23/08/2019 23:00
Clear
Clear
 Wind from S
Wind: S 11 km/h
Temperature: 12°C
Dew Point: 9°C
Humidity: 82%
Barometer: 1024 hPa
Clouds: Clear
Visibility: 10 km
2019/08/23 13:00 YBUD 231300Z AUTO 19006KT 9999 // NCD 12/09 Q1024
YGLA - Gladstone, Australia
Distance from station: NW 159km
Updated: 23/08/2019 23:00
Clear
Clear
 Wind from SE
Wind: SE 19 km/h
Temperature: 17°C
Dew Point: 11°C
Humidity: 68%
Barometer: 1023 hPa
Clouds: Clear
Visibility: 10 km
2019/08/23 13:00 YGLA 231300Z AUTO 13010KT 9999 // NCD 17/11 Q1023 RF00.0/000.0
YBRK - Rockhampton Airp, Australia
Distance from station: NW 252km
Updated: 23/08/2019 23:00
Clear
Clear
 Wind from ESE
Wind: ESE 13 km/h
Temperature: 18°C
Dew Point: 13°C
Humidity: 73%
Barometer: 1023 hPa
Clouds: Clear
Visibility: 10 km
2019/08/23 13:00 YBRK 231300Z AUTO 11007KT 9999 // NCD 18/13 Q1023
 
YBBN - Brisbane Intl Ar, Australia
Distance from station: SSE 292km
Updated: 23/08/2019 23:00
Clear
Clear
 Wind from SSW
Wind: SSW 7 km/h
Temperature: 12°C
Dew Point: 9°C
Humidity: 82%
Barometer: 1025 hPa
Summary: Clear
Visibility: greater than 10 km
2019/08/23 13:00 YBBN 231300Z 20004KT CAVOK 12/09 Q1025
YAMB - Amberley, Australia
Distance from station: S 312km
Updated: 23/08/2019 23:00
Clear
Clear
 Wind from NE
Wind: NE 6 km/h
Temperature: 10°C
Dew Point: 7°C
Humidity: 82%
Barometer: 1025 hPa
Clouds: Clear
Visibility: 10 km
2019/08/23 13:00 YAMB 231300Z AUTO 05003KT 9999 // NCD 10/07 Q1025
YBCG - Coolangatta Aws, Australia
Distance from station: SSE 386km
Updated: 23/08/2019 23:00
Clear
Clear
 Wind from SW
Wind: SW 7 km/h
Temperature: 11°C
Dew Point: 9°C
Humidity: 88%
Barometer: 1025 hPa
Clouds: Clear
Visibility: 10 km
2019/08/23 13:00 YBCG 231300Z AUTO 23004KT 9999 // NCD 11/09 Q1025